Time,TemperatureF,DewpointF,PressureIn,WindDirection,WindDirectionDegrees,WindSpeedMPH,WindSpeedGustMPH,Humidity,HourlyPrecipIn,Conditions,Clouds,dailyrainin,SoftwareType,DateUTC
2013-05-19 00:01:00,36.1,33.5,30.80,West,270,0.0,0.0,90,0.00,,---,0.00,VWS V13.01,2013-05-19 07:01:00,
2013-05-19 00:06:00,36.1,34.0,30.80,West,270,0.0,0.0,92,0.00,,---,0.00,VWS V13.01,2013-05-19 07:06:00,
2013-05-19 00:11:00,35.8,33.7,30.80,West,270,0.0,0.0,92,0.00,,---,0.00,VWS V13.01,2013-05-19 07:11:00,
2013-05-19 00:16:00,35.8,34.0,30.80,West,270,0.0,0.0,93,0.00,,---,0.00,VWS V13.01,2013-05-19 07:16:00,
2013-05-19 00:21:00,35.8,34.2,30.80,West,270,0.0,0.0,94,0.00,,---,0.00,VWS V13.01,2013-05-19 07:21:00,
2013-05-19 00:26:00,35.2,34.0,30.80,West,270,0.0,0.0,95,0.00,,---,0.00,VWS V13.01,2013-05-19 07:26:00,
2013-05-19 00:30:00,35.1,33.8,30.80,West,270,0.0,0.0,95,0.00,,---,0.00,VWS V13.01,2013-05-19 07:30:00,
2013-05-19 00:35:00,35.1,34.0,30.80,West,270,0.0,0.0,96,0.00,,---,0.00,VWS V13.01,2013-05-19 07:35:00,
2013-05-19 00:40:00,34.9,33.9,30.80,West,270,0.0,0.0,96,0.00,,---,0.00,VWS V13.01,2013-05-19 07:40:00,
2013-05-19 00:45:00,34.3,33.6,30.80,West,270,0.0,0.0,97,0.00,,---,0.00,VWS V13.01,2013-05-19 07:45:00,
2013-05-19 00:50:00,33.8,33.0,30.80,West,270,0.0,0.0,97,0.00,,---,0.00,VWS V13.01,2013-05-19 07:50:00,
2013-05-19 00:55:00,33.8,33.0,30.80,West,270,0.0,0.0,97,0.00,,---,0.00,VWS V13.01,2013-05-19 07:55:00,
2013-05-19 01:00:00,34.5,34.0,30.80,West,270,0.0,0.0,98,0.00,,---,0.00,VWS V13.01,2013-05-19 08:00:00,
2013-05-19 01:05:00,34.0,33.5,30.80,West,270,0.0,0.0,98,0.00,,---,0.00,VWS V13.01,2013-05-19 08:05:00,
2013-05-19 01:10:00,33.4,32.9,30.80,West,270,0.0,0.0,98,0.00,,---,0.00,VWS V13.01,2013-05-19 08:10:00,
2013-05-19 01:15:00,33.3,32.8,30.80,West,270,0.0,0.0,98,0.00,,---,0.00,VWS V13.01,2013-05-19 08:15:00,
2013-05-19 01:20:00,33.6,33.1,30.80,West,270,0.0,0.0,98,0.00,,---,0.00,VWS V13.01,2013-05-19 08:20:00,
2013-05-19 01:25:00,34.0,33.5,30.80,West,270,0.0,0.0,98,0.00,,---,0.00,VWS V13.01,2013-05-19 08:25:00,
2013-05-19 01:30:00,34.5,34.0,30.83,West,270,0.0,0.0,98,0.00,,---,0.00,VWS V13.01,2013-05-19 08:30:00,
2013-05-19 01:35:00,33.3,32.8,30.83,West,270,0.0,0.0,98,0.00,,---,0.00,VWS V13.01,2013-05-19 08:35:00,
2013-05-19 01:40:00,32.7,32.2,30.83,West,270,0.0,0.0,98,0.00,,---,0.00,VWS V13.01,2013-05-19 08:40:00,
2013-05-19 01:45:00,32.4,31.9,30.80,West,270,0.0,0.0,98,0.00,,---,0.00,VWS V13.01,2013-05-19 08:45:00,
2013-05-19 01:50:00,31.8,31.3,30.80,West,270,0.0,0.0,98,0.00,,---,0.00,VWS V13.01,2013-05-19 08:50:00,
2013-05-19 01:55:00,32.0,31.5,30.80,West,270,0.0,0.0,98,0.00,,---,0.00,VWS V13.01,2013-05-19 08:55:00,
2013-05-19 02:00:00,32.5,32.0,30.83,West,270,0.0,0.0,98,0.00,,---,0.00,VWS V13.01,2013-05-19 09:00:00,
2013-05-19 02:05:00,32.2,31.7,30.83,West,270,0.0,0.0,98,0.00,,---,0.00,VWS V13.01,2013-05-19 09:05:00,
2013-05-19 02:10:00,32.4,31.9,30.83,West,270,0.0,0.0,98,0.00,,---,0.00,VWS V13.01,2013-05-19 09:10:00,
2013-05-19 02:15:00,32.2,31.7,30.83,West,270,0.0,0.0,98,0.00,,---,0.00,VWS V13.01,2013-05-19 09:15:00,
2013-05-19 02:20:00,31.8,31.3,30.83,West,270,0.0,0.0,98,0.00,,---,0.00,VWS V13.01,2013-05-19 09:20:00,
2013-05-19 02:25:00,31.5,31.0,30.83,West,270,0.0,0.0,98,0.00,,---,0.00,VWS V13.01,2013-05-19 09:25:00,
2013-05-19 02:30:00,31.8,31.3,30.83,West,270,0.0,0.0,98,0.00,,---,0.00,VWS V13.01,2013-05-19 09:30:00,
2013-05-19 02:35:00,31.5,31.0,30.83,West,270,0.0,0.0,98,0.00,,---,0.00,VWS V13.01,2013-05-19 09:35:00,
2013-05-19 02:40:00,31.1,30.6,30.83,West,270,0.0,0.0,98,0.00,,---,0.00,VWS V13.01,2013-05-19 09:40:00,
2013-05-19 02:45:00,30.7,30.2,30.83,West,270,0.0,0.0,98,0.00,,---,0.00,VWS V13.01,2013-05-19 09:45:00,
2013-05-19 02:50:00,30.7,30.2,30.83,West,270,0.0,0.0,98,0.00,,---,0.00,VWS V13.01,2013-05-19 09:50:00,
2013-05-19 02:55:00,30.6,30.1,30.83,West,270,0.0,0.0,98,0.00,,---,0.00,VWS V13.01,2013-05-19 09:55:00,
2013-05-19 03:00:00,30.2,29.7,30.83,West,270,0.0,0.0,98,0.00,,---,0.00,VWS V13.01,2013-05-19 10:00:00,
2013-05-19 03:05:00,30.2,29.7,30.83,West,270,0.0,0.0,98,0.00,,---,0.00,VWS V13.01,2013-05-19 10:05:00,
2013-05-19 03:10:00,30.6,30.1,30.83,West,270,0.0,0.0,98,0.00,,---,0.00,VWS V13.01,2013-05-19 10:10:00,
2013-05-19 03:15:00,30.2,29.7,30.83,West,270,0.0,0.0,98,0.00,,---,0.00,VWS V13.01,2013-05-19 10:15:00,
2013-05-19 03:20:00,29.8,29.3,30.83,West,270,0.0,0.0,98,0.00,,---,0.00,VWS V13.01,2013-05-19 10:20:00,
2013-05-19 03:25:00,30.2,29.7,30.83,West,270,0.0,0.0,98,0.00,,---,0.00,VWS V13.01,2013-05-19 10:25:00,
2013-05-19 03:30:00,30.4,29.9,30.83,West,270,0.0,0.0,98,0.00,,---,0.00,VWS V13.01,2013-05-19 10:30:00,
2013-05-19 03:35:00,30.7,30.2,30.83,West,270,0.0,0.0,98,0.00,,---,0.00,VWS V13.01,2013-05-19 10:35:00,
2013-05-19 03:40:00,31.3,30.8,30.83,West,270,0.0,0.0,98,0.00,,---,0.00,VWS V13.01,2013-05-19 10:40:00,
2013-05-19 03:45:00,31.3,30.8,30.83,West,270,0.0,0.0,98,0.00,,---,0.00,VWS V13.01,2013-05-19 10:45:00,
2013-05-19 03:50:00,31.1,30.6,30.83,West,270,0.0,0.0,98,0.00,,---,0.00,VWS V13.01,2013-05-19 10:50:00,
2013-05-19 03:55:00,30.7,30.2,30.83,West,270,0.0,0.0,98,0.00,,---,0.00,VWS V13.01,2013-05-19 10:55:00,
2013-05-19 04:00:00,30.7,30.2,30.83,West,270,0.0,0.0,98,0.00,,---,0.00,VWS V13.01,2013-05-19 11:00:00,
2013-05-19 04:05:00,31.1,30.6,30.83,West,270,0.0,0.0,98,0.00,,---,0.00,VWS V13.01,2013-05-19 11:05:00,
2013-05-19 04:10:00,31.8,31.3,30.83,West,270,0.0,0.0,98,0.00,,---,0.00,VWS V13.01,2013-05-19 11:10:00,
2013-05-19 04:15:00,31.1,30.6,30.83,West,270,0.0,0.0,98,0.00,,---,0.00,VWS V13.01,2013-05-19 11:15:00,
2013-05-19 04:20:00,30.9,30.4,30.83,West,270,0.0,0.0,98,0.00,,---,0.00,VWS V13.01,2013-05-19 11:20:00,
2013-05-19 04:25:00,31.3,30.8,30.83,West,270,0.0,0.0,98,0.00,,---,0.00,VWS V13.01,2013-05-19 11:25:00,
2013-05-19 04:30:00,31.8,31.3,30.83,West,270,0.0,0.0,98,0.00,,---,0.00,VWS V13.01,2013-05-19 11:30:00,
2013-05-19 04:35:00,31.1,30.6,30.83,West,270,0.0,0.0,98,0.00,,---,0.00,VWS V13.01,2013-05-19 11:35:00,
2013-05-19 04:40:00,31.1,30.6,30.83,West,270,0.0,0.0,98,0.00,,---,0.00,VWS V13.01,2013-05-19 11:40:00,
2013-05-19 04:45:00,30.2,29.7,30.83,West,270,0.0,0.0,98,0.00,,---,0.00,VWS V13.01,2013-05-19 11:45:00,
2013-05-19 04:50:00,31.1,30.6,30.83,West,270,0.0,0.0,98,0.00,,---,0.00,VWS V13.01,2013-05-19 11:50:00,
2013-05-19 04:55:00,31.1,30.6,30.83,West,270,0.0,0.0,98,0.00,,---,0.00,VWS V13.01,2013-05-19 11:55:00,
2013-05-19 05:00:00,31.3,30.8,30.86,West,270,0.0,0.0,98,0.00,,---,0.00,VWS V13.01,2013-05-19 12:00:00,
2013-05-19 05:05:00,31.3,30.8,30.86,West,270,0.0,0.0,98,0.00,,---,0.00,VWS V13.01,2013-05-19 12:05:00,
2013-05-19 05:10:00,32.2,31.7,30.86,West,270,0.0,0.0,98,0.00,,---,0.00,VWS V13.01,2013-05-19 12:10:00,
2013-05-19 05:15:00,32.4,31.9,30.86,West,270,0.0,0.0,98,0.00,,---,0.00,VWS V13.01,2013-05-19 12:15:00,
2013-05-19 05:20:00,32.7,32.2,30.86,West,270,0.0,0.0,98,0.00,,---,0.00,VWS V13.01,2013-05-19 12:20:00,
2013-05-19 05:25:00,32.5,32.0,30.86,West,270,0.0,0.0,98,0.00,,---,0.00,VWS V13.01,2013-05-19 12:25:00,
2013-05-19 05:30:00,32.4,31.9,30.86,West,270,0.0,0.0,98,0.00,,---,0.00,VWS V13.01,2013-05-19 12:30:00,
2013-05-19 05:35:00,32.2,31.7,30.86,West,270,0.0,0.0,98,0.00,,---,0.00,VWS V13.01,2013-05-19 12:35:00,
2013-05-19 05:40:00,32.0,31.5,30.86,West,270,0.0,0.0,98,0.00,,---,0.00,VWS V13.01,2013-05-19 12:40:00,
2013-05-19 05:45:00,32.0,31.5,30.86,West,270,0.0,0.0,98,0.00,,---,0.00,VWS V13.01,2013-05-19 12:45:00,
2013-05-19 05:50:00,31.8,31.3,30.86,West,270,0.0,0.0,98,0.00,,---,0.00,VWS V13.01,2013-05-19 12:50:00,
2013-05-19 05:55:00,31.8,31.3,30.86,West,270,0.0,0.0,98,0.00,,---,0.00,VWS V13.01,2013-05-19 12:55:00,
2013-05-19 06:00:00,31.8,31.3,30.86,West,270,0.0,0.0,98,0.00,,---,0.00,VWS V13.01,2013-05-19 13:00:00,
2013-05-19 06:05:00,31.8,31.3,30.86,West,270,0.0,0.0,98,0.00,,---,0.00,VWS V13.01,2013-05-19 13:05:00,
2013-05-19 06:10:00,31.3,30.8,30.86,West,270,0.0,0.0,98,0.00,,---,0.00,VWS V13.01,2013-05-19 13:10:00,
2013-05-19 06:15:00,31.1,30.6,30.86,West,270,0.0,0.0,98,0.00,,---,0.00,VWS V13.01,2013-05-19 13:15:00,
2013-05-19 06:20:00,31.3,30.8,30.86,West,270,0.0,0.0,98,0.00,,---,0.00,VWS V13.01,2013-05-19 13:20:00,
2013-05-19 06:25:00,32.2,31.7,30.86,West,270,0.0,0.0,98,0.00,,---,0.00,VWS V13.01,2013-05-19 13:25:00,
2013-05-19 06:30:00,32.9,32.4,30.86,West,270,0.0,0.0,98,0.00,,---,0.00,VWS V13.01,2013-05-19 13:30:00,
2013-05-19 06:35:00,34.0,33.5,30.86,West,270,0.0,0.0,98,0.00,,---,0.00,VWS V13.01,2013-05-19 13:35:00,
2013-05-19 06:40:00,34.2,33.7,30.86,West,270,0.0,0.0,98,0.00,,---,0.00,VWS V13.01,2013-05-19 13:40:00,
2013-05-19 06:45:00,34.9,34.4,30.86,West,270,0.0,0.0,98,0.00,,---,0.00,VWS V13.01,2013-05-19 13:45:00,
2013-05-19 06:50:00,35.1,34.5,30.86,West,270,0.0,0.0,98,0.00,,---,0.00,VWS V13.01,2013-05-19 13:50:00,
2013-05-19 06:55:00,36.9,36.3,30.86,West,270,0.0,0.0,98,0.00,,---,0.00,VWS V13.01,2013-05-19 13:55:00,
2013-05-19 07:00:00,37.8,37.2,30.86,SW,225,0.0,0.0,98,0.00,,---,0.00,VWS V13.01,2013-05-19 14:00:00,
2013-05-19 07:05:00,38.5,38.0,30.86,SW,225,0.0,0.0,98,0.00,,---,0.00,VWS V13.01,2013-05-19 14:05:00,
2013-05-19 07:10:00,38.5,38.0,30.86,SW,225,0.0,0.0,98,0.00,,---,0.00,VWS V13.01,2013-05-19 14:10:00,
2013-05-19 07:15:00,39.2,38.7,30.86,SW,225,0.0,0.0,98,0.00,,---,0.00,VWS V13.01,2013-05-19 14:15:00,
2013-05-19 07:20:00,39.6,39.0,30.86,SW,225,0.0,0.0,98,0.00,,---,0.00,VWS V13.01,2013-05-19 14:20:00,
2013-05-19 07:25:00,40.3,39.8,30.86,SW,225,0.0,0.0,98,0.00,,---,0.00,VWS V13.01,2013-05-19 14:25:00,
2013-05-19 07:30:00,41.0,40.5,30.86,SW,225,0.0,0.0,98,0.00,,---,0.00,VWS V13.01,2013-05-19 14:30:00,
2013-05-19 07:35:00,41.4,40.8,30.86,SW,225,0.0,0.0,98,0.00,,---,0.00,VWS V13.01,2013-05-19 14:35:00,
2013-05-19 07:40:00,42.1,41.6,30.86,SW,225,0.0,0.0,98,0.00,,---,0.00,VWS V13.01,2013-05-19 14:40:00,
2013-05-19 07:45:00,42.4,41.7,30.89,SW,225,0.0,0.0,97,0.00,,---,0.00,VWS V13.01,2013-05-19 14:45:00,
2013-05-19 07:50:00,42.8,40.9,30.89,SW,225,0.0,0.0,93,0.00,,---,0.00,VWS V13.01,2013-05-19 14:50:00,
2013-05-19 07:55:00,43.0,39.4,30.89,SW,225,0.0,0.0,87,0.00,,---,0.00,VWS V13.01,2013-05-19 14:55:00,
2013-05-19 08:00:00,44.6,38.8,30.89,SE,135,0.0,0.0,80,0.00,,---,0.00,VWS V13.01,2013-05-19 15:00:00,
2013-05-19 08:05:00,46.0,37.5,30.89,SE,135,0.0,0.0,72,0.00,,---,0.00,VWS V13.01,2013-05-19 15:05:00,
2013-05-19 08:10:00,46.8,35.6,30.89,SE,135,0.0,0.0,65,0.00,,---,0.00,VWS V13.01,2013-05-19 15:10:00,
2013-05-19 08:15:00,47.3,35.4,30.89,SE,135,3.1,3.1,63,0.00,,---,0.00,VWS V13.01,2013-05-19 15:15:00,
2013-05-19 08:20:00,47.3,35.0,30.89,SE,135,0.0,0.0,62,0.00,,---,0.00,VWS V13.01,2013-05-19 15:20:00,
2013-05-19 08:25:00,47.7,34.9,30.89,SE,135,2.7,2.7,61,0.00,,---,0.00,VWS V13.01,2013-05-19 15:25:00,
2013-05-19 08:30:00,47.7,34.0,30.89,SE,135,0.0,0.0,59,0.00,,---,0.00,VWS V13.01,2013-05-19 15:30:00,
2013-05-19 08:35:00,48.4,33.9,30.89,SE,135,2.7,2.7,57,0.00,,---,0.00,VWS V13.01,2013-05-19 15:35:00,
2013-05-19 08:40:00,48.6,33.1,30.89,SE,135,0.0,2.2,55,0.00,,---,0.00,VWS V13.01,2013-05-19 15:40:00,
2013-05-19 08:45:00,49.6,34.6,30.89,SE,135,0.0,0.0,56,0.00,,---,0.00,VWS V13.01,2013-05-19 15:45:00,
2013-05-19 08:50:00,50.7,35.2,30.89,SE,135,2.7,3.1,55,0.00,,---,0.00,VWS V13.01,2013-05-19 15:50:00,
2013-05-19 08:55:00,52.0,34.9,30.89,SE,135,2.7,2.7,52,0.00,,---,0.00,VWS V13.01,2013-05-19 15:55:00,
2013-05-19 09:00:00,52.0,33.9,30.89,NE,45,6.3,6.3,50,0.00,,---,0.00,VWS V13.01,2013-05-19 16:00:00,
2013-05-19 09:05:00,51.4,33.9,30.89,NE,45,6.3,6.3,51,0.00,,---,0.00,VWS V13.01,2013-05-19 16:05:00,
2013-05-19 09:10:00,51.1,34.1,30.89,NE,45,3.6,4.5,52,0.00,,---,0.00,VWS V13.01,2013-05-19 16:10:00,
2013-05-19 09:15:00,51.3,34.2,30.89,NE,45,2.7,2.7,52,0.00,,---,0.00,VWS V13.01,2013-05-19 16:15:00,
2013-05-19 09:20:00,52.0,34.4,30.89,East,90,2.7,2.7,51,0.00,,---,0.00,VWS V13.01,2013-05-19 16:20:00,
2013-05-19 09:25:00,53.1,35.4,30.89,ENE,68,4.0,4.0,51,0.00,,---,0.00,VWS V13.01,2013-05-19 16:25:00,
2013-05-19 09:30:00,53.4,34.8,30.89,NNE,22,3.6,3.6,49,0.00,,---,0.00,VWS V13.01,2013-05-19 16:30:00,
2013-05-19 09:35:00,53.4,34.8,30.89,NE,45,3.6,3.6,49,0.00,,---,0.00,VWS V13.01,2013-05-19 16:35:00,
2013-05-19 09:40:00,54.5,35.2,30.89,NE,45,2.7,4.5,48,0.00,,---,0.00,VWS V13.01,2013-05-19 16:40:00,
2013-05-19 09:45:00,54.1,34.9,30.89,NE,45,5.4,8.3,48,0.00,,---,0.00,VWS V13.01,2013-05-19 16:45:00,
2013-05-19 09:50:00,54.7,35.4,30.89,NE,45,8.1,8.1,48,0.00,,---,0.00,VWS V13.01,2013-05-19 16:50:00,
2013-05-19 09:55:00,54.7,35.4,30.89,ENE,68,5.4,5.4,48,0.00,,---,0.00,VWS V13.01,2013-05-19 16:55:00,
2013-05-19 10:00:00,55.0,35.2,30.89,North,0,5.4,5.4,47,0.00,,---,0.00,VWS V13.01,2013-05-19 17:00:00,
2013-05-19 10:05:00,54.3,34.5,30.89,North,0,7.2,7.2,47,0.00,,---,0.00,VWS V13.01,2013-05-19 17:05:00,
2013-05-19 10:10:00,54.0,34.2,30.89,North,0,3.6,5.8,47,0.00,,---,0.00,VWS V13.01,2013-05-19 17:10:00,
2013-05-19 10:15:00,53.4,33.7,30.86,North,0,3.6,3.6,47,0.00,,---,0.00,VWS V13.01,2013-05-19 17:15:00,
2013-05-19 10:20:00,53.4,33.7,30.86,NNE,22,3.1,3.6,47,0.00,,---,0.00,VWS V13.01,2013-05-19 17:20:00,
2013-05-19 10:25:00,54.0,34.2,30.86,WNW,292,7.2,7.2,47,0.00,,---,0.00,VWS V13.01,2013-05-19 17:25:00,
2013-05-19 10:30:00,54.0,34.2,30.86,NE,45,5.8,7.6,47,0.00,,---,0.00,VWS V13.01,2013-05-19 17:30:00,
2013-05-19 10:35:00,53.8,34.0,30.86,North,0,4.0,4.0,47,0.00,,---,0.00,VWS V13.01,2013-05-19 17:35:00,
2013-05-19 10:40:00,54.1,34.4,30.86,NE,45,6.7,6.7,47,0.00,,---,0.00,VWS V13.01,2013-05-19 17:40:00,
2013-05-19 10:45:00,54.3,34.0,30.86,North,0,4.9,4.9,46,0.00,,---,0.00,VWS V13.01,2013-05-19 17:45:00,
2013-05-19 10:50:00,55.2,34.8,30.86,NE,45,2.7,4.0,46,0.00,,---,0.00,VWS V13.01,2013-05-19 17:50:00,
2013-05-19 10:55:00,55.0,34.1,30.86,North,0,3.1,4.9,45,0.00,,---,0.00,VWS V13.01,2013-05-19 17:55:00,
2013-05-19 11:00:00,55.8,34.8,30.86,North,0,5.4,5.4,45,0.00,,---,0.00,VWS V13.01,2013-05-19 18:00:00,
2013-05-19 11:05:00,56.8,34.6,30.86,NE,45,6.3,8.3,43,0.00,,---,0.00,VWS V13.01,2013-05-19 18:05:00,
2013-05-19 11:10:00,57.7,33.6,30.86,West,270,2.7,6.3,40,0.00,,---,0.00,VWS V13.01,2013-05-19 18:10:00,
2013-05-19 11:15:00,57.6,34.1,30.86,NE,45,7.6,7.6,41,0.00,,---,0.00,VWS V13.01,2013-05-19 18:15:00,
2013-05-19 11:20:00,56.7,33.8,30.86,East,90,4.9,6.7,42,0.00,,---,0.00,VWS V13.01,2013-05-19 18:20:00,
2013-05-19 11:25:00,57.2,34.3,30.86,North,0,8.1,8.1,42,0.00,,---,0.00,VWS V13.01,2013-05-19 18:25:00,
2013-05-19 11:30:00,57.2,34.3,30.86,North,0,3.1,8.3,42,0.00,,---,0.00,VWS V13.01,2013-05-19 18:30:00,
2013-05-19 11:35:00,57.6,34.1,30.86,North,0,6.3,7.2,41,0.00,,---,0.00,VWS V13.01,2013-05-19 18:35:00,
2013-05-19 11:40:00,57.6,34.1,30.86,NE,45,5.8,5.8,41,0.00,,---,0.00,VWS V13.01,2013-05-19 18:40:00,
2013-05-19 11:45:00,56.8,34.0,30.86,NE,45,6.3,6.3,42,0.00,,---,0.00,VWS V13.01,2013-05-19 18:45:00,
2013-05-19 11:50:00,57.2,35.5,30.86,North,0,8.3,11.9,44,0.00,,---,0.00,VWS V13.01,2013-05-19 18:50:00,
2013-05-19 11:55:00,56.7,34.4,30.86,North,0,8.1,8.3,43,0.00,,---,0.00,VWS V13.01,2013-05-19 18:55:00,
2013-05-19 12:00:00,57.6,35.2,30.86,NE,45,8.1,8.1,43,0.00,,---,0.00,VWS V13.01,2013-05-19 19:00:00,
2013-05-19 12:05:00,57.6,35.2,30.86,NNE,22,5.4,6.3,43,0.00,,---,0.00,VWS V13.01,2013-05-19 19:05:00,
2013-05-19 12:10:00,56.7,35.0,30.86,NE,45,8.3,8.7,44,0.00,,---,0.00,VWS V13.01,2013-05-19 19:10:00,
2013-05-19 12:15:00,56.3,34.1,30.86,North,0,6.3,7.6,43,0.00,,---,0.00,VWS V13.01,2013-05-19 19:15:00,
2013-05-19 12:20:00,57.4,35.7,30.86,NE,45,6.3,6.3,44,0.00,,---,0.00,VWS V13.01,2013-05-19 19:20:00,
2013-05-19 12:25:00,58.1,33.9,30.86,NNE,22,0.0,4.0,40,0.00,,---,0.00,VWS V13.01,2013-05-19 19:25:00,
2013-05-19 12:30:00,59.9,35.5,30.86,NE,45,9.6,9.6,40,0.00,,---,0.00,VWS V13.01,2013-05-19 19:30:00,
2013-05-19 12:35:00,59.0,34.1,30.86,North,0,4.5,8.1,39,0.00,,---,0.00,VWS V13.01,2013-05-19 19:35:00,
2013-05-19 12:40:00,59.5,35.8,30.86,North,0,6.3,6.3,41,0.00,,---,0.00,VWS V13.01,2013-05-19 19:40:00,
2013-05-19 12:45:00,59.5,35.2,30.86,North,0,7.6,11.0,40,0.00,,---,0.00,VWS V13.01,2013-05-19 19:45:00,
2013-05-19 12:50:00,60.1,35.1,30.86,NE,45,5.8,10.1,39,0.00,,---,0.00,VWS V13.01,2013-05-19 19:50:00,
2013-05-19 12:55:00,60.4,36.0,30.86,NNW,338,5.8,8.1,40,0.00,,---,0.00,VWS V13.01,2013-05-19 19:55:00,
2013-05-19 13:00:00,59.2,34.3,30.86,NE,45,7.2,7.6,39,0.00,,---,0.00,VWS V13.01,2013-05-19 20:00:00,
2013-05-19 13:05:00,59.4,33.8,30.86,NE,45,7.2,8.3,38,0.00,,---,0.00,VWS V13.01,2013-05-19 20:05:00,
2013-05-19 13:10:00,60.1,34.4,30.86,North,0,8.3,12.3,38,0.00,,---,0.00,VWS V13.01,2013-05-19 20:10:00,
2013-05-19 13:14:00,59.4,33.8,30.86,North,0,4.9,8.1,38,0.00,,---,0.00,VWS V13.01,2013-05-19 20:14:00,
2013-05-19 13:19:00,59.9,34.2,30.86,NE,45,8.1,8.7,38,0.00,,---,0.00,VWS V13.01,2013-05-19 20:19:00,
2013-05-19 13:24:00,60.3,34.6,30.86,NW,315,5.4,5.8,38,0.00,,---,0.00,VWS V13.01,2013-05-19 20:24:00,
2013-05-19 13:29:00,61.7,35.2,30.86,North,0,6.3,7.6,37,0.00,,---,0.00,VWS V13.01,2013-05-19 20:29:00,
2013-05-19 13:34:00,61.7,35.2,30.86,North,0,3.1,5.4,37,0.00,,---,0.00,VWS V13.01,2013-05-19 20:34:00,
2013-05-19 13:39:00,59.7,33.4,30.86,NE,45,7.2,8.7,37,0.00,,---,0.00,VWS V13.01,2013-05-19 20:39:00,
2013-05-19 13:44:00,60.3,33.9,30.83,NE,45,8.1,8.3,37,0.00,,---,0.00,VWS V13.01,2013-05-19 20:44:00,
2013-05-19 13:49:00,61.5,34.3,30.83,NE,45,8.3,8.7,36,0.00,,---,0.00,VWS V13.01,2013-05-19 20:49:00,
2013-05-19 13:54:00,61.3,34.2,30.83,North,0,4.0,8.1,36,0.00,,---,0.00,VWS V13.01,2013-05-19 20:54:00,
2013-05-19 13:59:00,61.2,35.4,30.83,NNE,22,8.7,9.6,38,0.00,,---,0.00,VWS V13.01,2013-05-19 20:59:00,
2013-05-19 14:04:00,61.7,35.9,30.83,NE,45,11.0,11.0,38,0.00,,---,0.00,VWS V13.01,2013-05-19 21:04:00,
2013-05-19 14:09:00,61.9,36.0,30.83,NW,315,7.6,10.1,38,0.00,,---,0.00,VWS V13.01,2013-05-19 21:09:00,
2013-05-19 14:14:00,62.1,35.5,30.83,NE,45,8.3,12.8,37,0.00,,---,0.00,VWS V13.01,2013-05-19 21:14:00,
2013-05-19 14:19:00,62.8,35.5,30.83,North,0,10.1,11.0,36,0.00,,---,0.00,VWS V13.01,2013-05-19 21:19:00,
2013-05-19 14:24:00,61.7,34.5,30.83,North,0,10.5,12.3,36,0.00,,---,0.00,VWS V13.01,2013-05-19 21:24:00,
2013-05-19 14:29:00,62.6,35.3,30.83,NNW,338,5.8,10.1,36,0.00,,---,0.00,VWS V13.01,2013-05-19 21:29:00,
2013-05-19 14:34:00,63.9,35.7,30.83,WNW,292,8.3,9.2,35,0.00,,---,0.00,VWS V13.01,2013-05-19 21:34:00,
2013-05-19 14:39:00,63.5,34.7,30.83,NNE,22,11.0,11.9,34,0.00,,---,0.00,VWS V13.01,2013-05-19 21:39:00,
2013-05-19 14:44:00,63.7,34.8,30.83,NNW,338,5.4,11.0,34,0.00,,---,0.00,VWS V13.01,2013-05-19 21:44:00,
2013-05-19 14:49:00,63.5,34.7,30.83,NW,315,7.2,8.3,34,0.00,,---,0.00,VWS V13.01,2013-05-19 21:49:00,
2013-05-19 14:54:00,62.2,33.5,30.83,NE,45,7.6,11.0,34,0.00,,---,0.00,VWS V13.01,2013-05-19 21:54:00,
2013-05-19 14:59:00,62.8,34.0,30.83,West,270,10.1,10.1,34,0.00,,---,0.00,VWS V13.01,2013-05-19 21:59:00,
2013-05-19 15:04:00,63.3,34.5,30.83,NE,45,11.0,11.0,34,0.00,,---,0.00,VWS V13.01,2013-05-19 22:04:00,
2013-05-19 15:09:00,61.5,33.6,30.83,NE,45,6.3,8.3,35,0.00,,---,0.00,VWS V13.01,2013-05-19 22:09:00,
2013-05-19 15:14:00,60.4,33.4,30.83,NE,45,10.5,10.5,36,0.00,,---,0.00,VWS V13.01,2013-05-19 22:14:00,
2013-05-19 15:19:00,61.2,33.3,30.83,NE,45,9.2,9.2,35,0.00,,---,0.00,VWS V13.01,2013-05-19 22:19:00,
2013-05-19 15:24:00,61.3,33.5,30.83,NE,45,4.9,7.2,35,0.00,,---,0.00,VWS V13.01,2013-05-19 22:24:00,
2013-05-19 15:29:00,61.9,34.0,30.83,North,0,8.7,9.6,35,0.00,,---,0.00,VWS V13.01,2013-05-19 22:29:00,
2013-05-19 15:34:00,61.7,33.8,30.83,NNE,22,8.1,10.5,35,0.00,,---,0.00,VWS V13.01,2013-05-19 22:34:00,
2013-05-19 15:39:00,61.0,33.2,30.83,NNE,22,8.7,9.6,35,0.00,,---,0.00,VWS V13.01,2013-05-19 22:39:00,
2013-05-19 15:44:00,60.6,32.8,30.83,North,0,7.6,8.3,35,0.00,,---,0.00,VWS V13.01,2013-05-19 22:44:00,
2013-05-19 15:49:00,61.7,33.8,30.83,NE,45,5.8,8.3,35,0.00,,---,0.00,VWS V13.01,2013-05-19 22:49:00,
2013-05-19 15:54:00,64.0,35.1,30.83,WNW,292,11.4,11.4,34,0.00,,---,0.00,VWS V13.01,2013-05-19 22:54:00,
2013-05-19 15:59:00,63.1,34.3,30.83,North,0,5.4,5.4,34,0.00,,---,0.00,VWS V13.01,2013-05-19 22:59:00,
2013-05-19 16:04:00,62.2,33.5,30.83,NE,45,5.4,8.1,34,0.00,,---,0.00,VWS V13.01,2013-05-19 23:04:00,
2013-05-19 16:09:00,61.7,33.1,30.83,North,0,5.4,6.7,34,0.00,,---,0.00,VWS V13.01,2013-05-19 23:09:00,
2013-05-19 16:14:00,62.1,33.4,30.83,North,0,8.1,8.1,34,0.00,,---,0.00,VWS V13.01,2013-05-19 23:14:00,
2013-05-19 16:19:00,61.5,32.9,30.83,North,0,4.9,8.3,34,0.00,,---,0.00,VWS V13.01,2013-05-19 23:19:00,
2013-05-19 16:24:00,63.3,34.5,30.83,North,0,3.1,6.7,34,0.00,,---,0.00,VWS V13.01,2013-05-19 23:24:00,
2013-05-19 16:29:00,64.8,35.0,30.83,North,0,4.9,5.8,33,0.00,,---,0.00,VWS V13.01,2013-05-19 23:29:00,
2013-05-19 16:34:00,62.6,33.1,30.83,North,0,8.1,8.7,33,0.00,,---,0.00,VWS V13.01,2013-05-19 23:34:00,
2013-05-19 16:39:00,61.9,33.2,30.83,NE,45,7.6,8.1,34,0.00,,---,0.00,VWS V13.01,2013-05-19 23:39:00,
2013-05-19 16:44:00,61.7,33.1,30.83,NE,45,8.1,8.1,34,0.00,,---,0.00,VWS V13.01,2013-05-19 23:44:00,
2013-05-19 16:49:00,63.1,34.3,30.83,NNE,22,5.4,5.4,34,0.00,,---,0.00,VWS V13.01,2013-05-19 23:49:00,
2013-05-19 16:54:00,63.9,35.0,30.83,North,0,8.3,8.3,34,0.00,,---,0.00,VWS V13.01,2013-05-19 23:54:00,
2013-05-19 16:59:00,63.9,35.0,30.83,North,0,7.6,12.3,34,0.00,,---,0.00,VWS V13.01,2013-05-19 23:59:00,
2013-05-19 17:04:00,62.2,33.5,30.83,NE,45,4.0,6.3,34,0.00,,---,0.00,VWS V13.01,2013-05-20 00:04:00,
2013-05-19 17:09:00,62.8,34.0,30.83,NW,315,8.1,8.1,34,0.00,,---,0.00,VWS V13.01,2013-05-20 00:09:00,
2013-05-19 17:14:00,62.2,33.5,30.80,NE,45,6.3,12.3,34,0.00,,---,0.00,VWS V13.01,2013-05-20 00:14:00,
2013-05-19 17:19:00,61.5,32.9,30.80,North,0,7.6,7.6,34,0.00,,---,0.00,VWS V13.01,2013-05-20 00:19:00,
2013-05-19 17:24:00,61.0,33.2,30.80,NE,45,11.9,11.9,35,0.00,,---,0.00,VWS V13.01,2013-05-20 00:24:00,
2013-05-19 17:29:00,61.2,33.3,30.83,NE,45,8.3,8.3,35,0.00,,---,0.00,VWS V13.01,2013-05-20 00:29:00,
2013-05-19 17:34:00,60.8,33.0,30.83,NNE,22,7.6,8.3,35,0.00,,---,0.00,VWS V13.01,2013-05-20 00:34:00,
2013-05-19 17:39:00,60.4,32.7,30.83,NE,45,6.7,11.9,35,0.00,,---,0.00,VWS V13.01,2013-05-20 00:39:00,
2013-05-19 17:44:00,60.1,32.4,30.83,North,0,7.6,7.6,35,0.00,,---,0.00,VWS V13.01,2013-05-20 00:44:00,
2013-05-19 17:49:00,60.3,32.5,30.83,North,0,4.9,5.4,35,0.00,,---,0.00,VWS V13.01,2013-05-20 00:49:00,
2013-05-19 17:54:00,61.2,33.3,30.83,North,0,8.3,9.6,35,0.00,,---,0.00,VWS V13.01,2013-05-20 00:54:00,
2013-05-19 17:59:00,62.2,34.3,30.80,NNE,22,8.7,8.7,35,0.00,,---,0.00,VWS V13.01,2013-05-20 00:59:00,
2013-05-19 18:04:00,62.4,34.4,30.80,NE,45,10.5,10.5,35,0.00,,---,0.00,VWS V13.01,2013-05-20 01:04:00,
2013-05-19 18:09:00,62.2,34.3,30.80,NE,45,7.6,8.7,35,0.00,,---,0.00,VWS V13.01,2013-05-20 01:09:00,
2013-05-19 18:14:00,62.1,34.1,30.83,NE,45,10.5,10.5,35,0.00,,---,0.00,VWS V13.01,2013-05-20 01:14:00,
2013-05-19 18:19:00,62.2,34.3,30.83,NE,45,11.0,11.0,35,0.00,,---,0.00,VWS V13.01,2013-05-20 01:19:00,
2013-05-19 18:24:00,62.1,34.1,30.83,NE,45,6.3,8.3,35,0.00,,---,0.00,VWS V13.01,2013-05-20 01:24:00,
2013-05-19 18:29:00,61.7,33.8,30.80,ENE,68,7.6,8.1,35,0.00,,---,0.00,VWS V13.01,2013-05-20 01:29:00,
2013-05-19 18:34:00,61.3,32.8,30.80,NE,45,4.0,8.3,34,0.00,,---,0.00,VWS V13.01,2013-05-20 01:34:00,
2013-05-19 18:39:00,61.9,34.0,30.80,ENE,68,8.7,8.7,35,0.00,,---,0.00,VWS V13.01,2013-05-20 01:39:00,
2013-05-19 18:44:00,61.7,33.1,30.80,NE,45,8.7,10.5,34,0.00,,---,0.00,VWS V13.01,2013-05-20 01:44:00,
2013-05-19 18:49:00,61.7,33.1,30.80,NE,45,5.8,8.1,34,0.00,,---,0.00,VWS V13.01,2013-05-20 01:49:00,
2013-05-19 18:54:00,61.9,34.0,30.80,NE,45,8.7,8.7,35,0.00,,---,0.00,VWS V13.01,2013-05-20 01:54:00,
2013-05-19 18:59:00,61.7,33.8,30.80,North,0,9.6,9.6,35,0.00,,---,0.00,VWS V13.01,2013-05-20 01:59:00,
2013-05-19 19:04:00,61.3,32.8,30.80,North,0,6.3,9.2,34,0.00,,---,0.00,VWS V13.01,2013-05-20 02:04:00,
2013-05-19 19:09:00,61.0,33.2,30.80,NE,45,8.7,10.5,35,0.00,,---,0.00,VWS V13.01,2013-05-20 02:09:00,
2013-05-19 19:14:00,60.4,32.7,30.83,NE,45,6.3,8.3,35,0.00,,---,0.00,VWS V13.01,2013-05-20 02:14:00,
2013-05-19 19:19:00,59.9,32.2,30.83,NE,45,9.6,9.6,35,0.00,,---,0.00,VWS V13.01,2013-05-20 02:19:00,
2013-05-19 19:24:00,59.4,31.7,30.83,North,0,8.3,11.0,35,0.00,,---,0.00,VWS V13.01,2013-05-20 02:24:00,
2013-05-19 19:29:00,59.0,31.4,30.83,North,0,5.8,5.8,35,0.00,,---,0.00,VWS V13.01,2013-05-20 02:29:00,
2013-05-19 19:34:00,58.6,31.8,30.83,NE,45,7.6,7.6,36,0.00,,---,0.00,VWS V13.01,2013-05-20 02:34:00,
2013-05-19 19:39:00,58.5,31.6,30.83,NE,45,3.6,4.0,36,0.00,,---,0.00,VWS V13.01,2013-05-20 02:39:00,
2013-05-19 19:44:00,57.9,31.1,30.83,North,0,8.3,9.6,36,0.00,,---,0.00,VWS V13.01,2013-05-20 02:44:00,
2013-05-19 19:49:00,57.6,30.8,30.83,North,0,6.3,8.1,36,0.00,,---,0.00,VWS V13.01,2013-05-20 02:49:00,
2013-05-19 19:54:00,57.2,30.5,30.83,NNE,22,5.8,10.1,36,0.00,,---,0.00,VWS V13.01,2013-05-20 02:54:00,
2013-05-19 19:59:00,56.8,30.2,30.83,NE,45,5.4,6.3,36,0.00,,---,0.00,VWS V13.01,2013-05-20 02:59:00,
2013-05-19 20:04:00,56.7,30.0,30.83,NE,45,3.6,3.6,36,0.00,,---,0.00,VWS V13.01,2013-05-20 03:04:00,
2013-05-19 20:09:00,56.5,29.9,30.83,NNE,22,4.9,5.8,36,0.00,,---,0.00,VWS V13.01,2013-05-20 03:09:00,
2013-05-19 20:14:00,56.1,30.2,30.83,North,0,4.5,5.4,37,0.00,,---,0.00,VWS V13.01,2013-05-20 03:14:00,
2013-05-19 20:19:00,55.8,29.9,30.83,NNE,22,5.4,7.6,37,0.00,,---,0.00,VWS V13.01,2013-05-20 03:19:00,
2013-05-19 20:24:00,55.2,29.4,30.83,NNE,22,4.9,4.9,37,0.00,,---,0.00,VWS V13.01,2013-05-20 03:24:00,
2013-05-19 20:29:00,54.9,29.8,30.83,NNE,22,5.4,5.4,38,0.00,,---,0.00,VWS V13.01,2013-05-20 03:29:00,
2013-05-19 20:34:00,54.5,29.4,30.83,North,0,2.7,3.6,38,0.00,,---,0.00,VWS V13.01,2013-05-20 03:34:00,
2013-05-19 20:39:00,53.8,28.8,30.83,North,0,4.0,4.0,38,0.00,,---,0.00,VWS V13.01,2013-05-20 03:39:00,
2013-05-19 20:44:00,53.4,29.1,30.83,North,0,3.6,3.6,39,0.00,,---,0.00,VWS V13.01,2013-05-20 03:44:00,
2013-05-19 20:49:00,53.1,29.4,30.83,North,0,3.1,3.6,40,0.00,,---,0.00,VWS V13.01,2013-05-20 03:49:00,
2013-05-19 20:54:00,52.5,29.5,30.83,North,0,2.7,2.7,41,0.00,,---,0.00,VWS V13.01,2013-05-20 03:54:00,
2013-05-19 20:59:00,52.0,29.0,30.83,North,0,3.6,3.6,41,0.00,,---,0.00,VWS V13.01,2013-05-20 03:59:00,
2013-05-19 21:01:00,51.8,28.9,30.83,NNW,338,4.0,7.2,41,0.00,,---,0.00,VWS V13.01,2013-05-20 04:01:00,
2013-05-19 21:06:00,51.4,28.5,30.83,North,0,3.1,3.6,41,0.00,,---,0.00,VWS V13.01,2013-05-20 04:06:00,
2013-05-19 21:11:00,51.1,28.8,30.83,North,0,3.1,3.6,42,0.00,,---,0.00,VWS V13.01,2013-05-20 04:11:00,
2013-05-19 21:16:00,50.9,28.6,30.83,North,0,0.0,3.1,42,0.00,,---,0.00,VWS V13.01,2013-05-20 04:16:00,
2013-05-19 21:21:00,50.5,28.3,30.83,North,0,3.1,3.1,42,0.00,,---,0.00,VWS V13.01,2013-05-20 04:21:00,
2013-05-19 21:26:00,50.0,28.4,30.83,North,0,0.0,0.0,43,0.00,,---,0.00,VWS V13.01,2013-05-20 04:26:00,
2013-05-19 21:31:00,49.5,29.0,30.83,North,0,0.0,0.0,45,0.00,,---,0.00,VWS V13.01,2013-05-20 04:31:00,
2013-05-19 21:36:00,48.9,29.1,30.83,North,0,0.0,0.0,46,0.00,,---,0.00,VWS V13.01,2013-05-20 04:36:00,
2013-05-19 21:41:00,48.6,29.3,30.83,North,0,2.7,3.1,47,0.00,,---,0.00,VWS V13.01,2013-05-20 04:41:00,
2013-05-19 21:46:00,48.4,29.6,30.83,North,0,2.7,3.6,48,0.00,,---,0.00,VWS V13.01,2013-05-20 04:46:00,
2013-05-19 21:51:00,48.4,29.6,30.83,North,0,0.0,0.0,48,0.00,,---,0.00,VWS V13.01,2013-05-20 04:51:00,
2013-05-19 21:56:00,47.7,29.5,30.83,North,0,0.0,0.0,49,0.00,,---,0.00,VWS V13.01,2013-05-20 04:56:00,
2013-05-19 22:01:00,47.5,29.8,30.83,North,0,0.0,0.0,50,0.00,,---,0.00,VWS V13.01,2013-05-20 05:01:00,
2013-05-19 22:06:00,47.3,30.1,30.83,WNW,292,3.1,3.1,51,0.00,,---,0.00,VWS V13.01,2013-05-20 05:06:00,
2013-05-19 22:11:00,47.1,30.4,30.83,North,0,2.2,2.2,52,0.00,,---,0.00,VWS V13.01,2013-05-20 05:11:00,
2013-05-19 22:16:00,46.9,30.2,30.86,North,0,0.0,0.0,52,0.00,,---,0.00,VWS V13.01,2013-05-20 05:16:00,
2013-05-19 22:21:00,46.6,30.4,30.86,North,0,0.0,0.0,53,0.00,,---,0.00,VWS V13.01,2013-05-20 05:21:00,
2013-05-19 22:26:00,46.0,30.3,30.86,North,0,0.0,0.0,54,0.00,,---,0.00,VWS V13.01,2013-05-20 05:26:00,
2013-05-19 22:31:00,45.9,31.1,30.86,North,0,0.0,0.0,56,0.00,,---,0.00,VWS V13.01,2013-05-20 05:31:00,
2013-05-19 22:36:00,45.5,30.7,30.86,North,0,0.0,0.0,56,0.00,,---,0.00,VWS V13.01,2013-05-20 05:36:00,
2013-05-19 22:41:00,45.3,31.0,30.86,North,0,0.0,0.0,57,0.00,,---,0.00,VWS V13.01,2013-05-20 05:41:00,
2013-05-19 22:46:00,45.1,31.7,30.86,North,0,0.0,0.0,59,0.00,,---,0.00,VWS V13.01,2013-05-20 05:46:00,
2013-05-19 22:51:00,45.0,31.9,30.86,North,0,0.0,0.0,60,0.00,,---,0.00,VWS V13.01,2013-05-20 05:51:00,
2013-05-19 22:56:00,44.1,31.5,30.86,North,0,0.0,0.0,61,0.00,,---,0.00,VWS V13.01,2013-05-20 05:56:00,
2013-05-19 23:01:00,43.3,30.8,30.86,North,0,0.0,0.0,61,0.00,,---,0.00,VWS V13.01,2013-05-20 06:01:00,
2013-05-19 23:06:00,42.6,30.9,30.86,North,0,0.0,0.0,63,0.00,,---,0.00,VWS V13.01,2013-05-20 06:06:00,
2013-05-19 23:11:00,41.9,30.6,30.86,North,0,0.0,0.0,64,0.00,,---,0.00,VWS V13.01,2013-05-20 06:11:00,
2013-05-19 23:16:00,41.2,30.7,30.86,North,0,0.0,0.0,66,0.00,,---,0.00,VWS V13.01,2013-05-20 06:16:00,
2013-05-19 23:21:00,40.8,30.7,30.86,North,0,0.0,0.0,67,0.00,,---,0.00,VWS V13.01,2013-05-20 06:21:00,
2013-05-19 23:26:00,40.8,31.8,30.86,North,0,0.0,0.0,70,0.00,,---,0.00,VWS V13.01,2013-05-20 06:26:00,
2013-05-19 23:31:00,39.9,30.9,30.86,North,0,0.0,0.0,70,0.00,,---,0.00,VWS V13.01,2013-05-20 06:31:00,
2013-05-19 23:36:00,39.6,30.2,30.86,North,0,0.0,0.0,69,0.00,,---,0.00,VWS V13.01,2013-05-20 06:36:00,
2013-05-19 23:41:00,39.2,30.6,30.86,North,0,0.0,0.0,71,0.00,,---,0.00,VWS V13.01,2013-05-20 06:41:00,
2013-05-19 23:46:00,38.7,30.1,30.86,North,0,0.0,0.0,71,0.00,,---,0.00,VWS V13.01,2013-05-20 06:46:00,
2013-05-19 23:51:00,38.1,29.2,30.86,North,0,0.0,0.0,70,0.00,,---,0.00,VWS V13.01,2013-05-20 06:51:00,
2013-05-19 23:56:00,37.8,29.6,30.86,North,0,0.0,0.0,72,0.00,,---,0.00,VWS V13.01,2013-05-20 06:56:00,